sensor_id;sensor_type;location;lat;lon;timestamp;temperature;humidity
9305;DHT22;4690;52.422;13.486;2023-06-10T00:04:34;17.30;99.90
9305;DHT22;4690;52.422;13.486;2023-06-10T00:07:03;17.10;99.90
9305;DHT22;4690;52.422;13.486;2023-06-10T00:09:34;17.00;99.90
9305;DHT22;4690;52.422;13.486;2023-06-10T00:12:06;16.80;99.90
9305;DHT22;4690;52.422;13.486;2023-06-10T00:14:39;16.90;99.90
9305;DHT22;4690;52.422;13.486;2023-06-10T00:17:08;17.00;99.90
9305;DHT22;4690;52.422;13.486;2023-06-10T00:19:37;16.80;99.90
9305;DHT22;4690;52.422;13.486;2023-06-10T00:22:07;16.80;99.90
9305;DHT22;4690;52.422;13.486;2023-06-10T00:24:34;16.80;99.90
9305;DHT22;4690;52.422;13.486;2023-06-10T00:26:59;16.90;99.90
9305;DHT22;4690;52.422;13.486;2023-06-10T00:29:25;16.90;99.90
9305;DHT22;4690;52.422;13.486;2023-06-10T00:31:51;16.80;99.90
9305;DHT22;4690;52.422;13.486;2023-06-10T00:34:19;16.80;99.90
9305;DHT22;4690;52.422;13.486;2023-06-10T00:36:44;16.80;99.90
9305;DHT22;4690;52.422;13.486;2023-06-10T00:39:10;16.90;99.90
9305;DHT22;4690;52.422;13.486;2023-06-10T00:41:36;16.90;99.90
9305;DHT22;4690;52.422;13.486;2023-06-10T00:44:02;16.80;99.90
9305;DHT22;4690;52.422;13.486;2023-06-10T00:46:28;16.70;99.90
9305;DHT22;4690;52.422;13.486;2023-06-10T00:48:54;16.70;99.90
9305;DHT22;4690;52.422;13.486;2023-06-10T00:51:21;16.70;99.90
9305;DHT22;4690;52.422;13.486;2023-06-10T00:53:48;16.70;99.90
9305;DHT22;4690;52.422;13.486;2023-06-10T00:56:15;16.70;99.90
9305;DHT22;4690;52.422;13.486;2023-06-10T00:58:41;16.60;99.90
9305;DHT22;4690;52.422;13.486;2023-06-10T01:01:06;16.60;99.90
9305;DHT22;4690;52.422;13.486;2023-06-10T01:03:33;16.60;99.90
9305;DHT22;4690;52.422;13.486;2023-06-10T01:06:41;16.60;99.90
9305;DHT22;4690;52.422;13.486;2023-06-10T01:09:40;16.40;99.90
9305;DHT22;4690;52.422;13.486;2023-06-10T01:12:18;16.40;99.90
9305;DHT22;4690;52.422;13.486;2023-06-10T01:14:44;16.40;99.90
9305;DHT22;4690;52.422;13.486;2023-06-10T01:17:11;16.40;99.90
9305;DHT22;4690;52.422;13.486;2023-06-10T01:19:38;16.40;99.90
9305;DHT22;4690;52.422;13.486;2023-06-10T01:22:04;16.40;99.90
9305;DHT22;4690;52.422;13.486;2023-06-10T01:24:30;16.40;99.90
9305;DHT22;4690;52.422;13.486;2023-06-10T01:27:01;16.40;99.90
9305;DHT22;4690;52.422;13.486;2023-06-10T01:29:46;16.40;99.90
9305;DHT22;4690;52.422;13.486;2023-06-10T01:32:26;16.30;99.90
9305;DHT22;4690;52.422;13.486;2023-06-10T01:34:59;16.30;99.90
9305;DHT22;4690;52.422;13.486;2023-06-10T01:37:27;16.30;99.90
9305;DHT22;4690;52.422;13.486;2023-06-10T01:39:57;16.30;99.90
9305;DHT22;4690;52.422;13.486;2023-06-10T01:42:25;16.30;99.90
9305;DHT22;4690;52.422;13.486;2023-06-10T01:44:51;16.30;99.90
9305;DHT22;4690;52.422;13.486;2023-06-10T01:47:18;16.30;99.90
9305;DHT22;4690;52.422;13.486;2023-06-10T01:49:44;16.30;99.90
9305;DHT22;4690;52.422;13.486;2023-06-10T01:52:09;16.30;99.90
9305;DHT22;4690;52.422;13.486;2023-06-10T01:54:35;16.20;99.90
9305;DHT22;4690;52.422;13.486;2023-06-10T01:57:01;16.20;99.90
9305;DHT22;4690;52.422;13.486;2023-06-10T01:59:27;16.10;99.90
9305;DHT22;4690;52.422;13.486;2023-06-10T02:01:53;16.10;99.90
9305;DHT22;4690;52.422;13.486;2023-06-10T02:04:18;16.10;99.90
9305;DHT22;4690;52.422;13.486;2023-06-10T02:06:44;16.10;99.90
9305;DHT22;4690;52.422;13.486;2023-06-10T02:09:10;16.00;99.90
9305;DHT22;4690;52.422;13.486;2023-06-10T02:11:36;16.10;99.90
9305;DHT22;4690;52.422;13.486;2023-06-10T02:14:03;16.10;99.90
9305;DHT22;4690;52.422;13.486;2023-06-10T02:16:29;16.00;99.90
9305;DHT22;4690;52.422;13.486;2023-06-10T02:18:56;16.00;99.90
9305;DHT22;4690;52.422;13.486;2023-06-10T02:21:21;16.00;99.90
9305;DHT22;4690;52.422;13.486;2023-06-10T02:23:47;16.00;99.90
9305;DHT22;4690;52.422;13.486;2023-06-10T02:26:13;16.00;99.90
9305;DHT22;4690;52.422;13.486;2023-06-10T02:28:42;15.90;99.90
9305;DHT22;4690;52.422;13.486;2023-06-10T02:31:09;15.90;99.90
9305;DHT22;4690;52.422;13.486;2023-06-10T02:33:34;15.90;99.90
9305;DHT22;4690;52.422;13.486;2023-06-10T02:36:00;15.80;99.90
9305;DHT22;4690;52.422;13.486;2023-06-10T02:38:26;15.70;99.90
9305;DHT22;4690;52.422;13.486;2023-06-10T02:40:52;15.80;99.90
9305;DHT22;4690;52.422;13.486;2023-06-10T02:43:18;15.80;99.90
9305;DHT22;4690;52.422;13.486;2023-06-10T02:45:44;15.70;99.90
9305;DHT22;4690;52.422;13.486;2023-06-10T02:48:10;15.70;99.90
9305;DHT22;4690;52.422;13.486;2023-06-10T02:50:36;15.70;99.90
9305;DHT22;4690;52.422;13.486;2023-06-10T02:53:01;15.60;99.90
9305;DHT22;4690;52.422;13.486;2023-06-10T02:55:27;15.70;99.90
9305;DHT22;4690;52.422;13.486;2023-06-10T02:57:54;15.60;99.90
9305;DHT22;4690;52.422;13.486;2023-06-10T03:00:20;15.70;99.90
9305;DHT22;4690;52.422;13.486;2023-06-10T03:02:47;15.70;99.90
9305;DHT22;4690;52.422;13.486;2023-06-10T03:05:14;15.60;99.90
9305;DHT22;4690;52.422;13.486;2023-06-10T03:07:40;15.70;99.90
9305;DHT22;4690;52.422;13.486;2023-06-10T03:10:06;15.70;99.90
9305;DHT22;4690;52.422;13.486;2023-06-10T03:12:33;15.60;99.90
9305;DHT22;4690;52.422;13.486;2023-06-10T03:14:58;15.60;99.90
9305;DHT22;4690;52.422;13.486;2023-06-10T03:17:24;15.60;99.90
9305;DHT22;4690;52.422;13.486;2023-06-10T03:19:50;15.50;99.90
9305;DHT22;4690;52.422;13.486;2023-06-10T03:22:16;15.60;99.90
9305;DHT22;4690;52.422;13.486;2023-06-10T03:24:42;15.60;99.90
9305;DHT22;4690;52.422;13.486;2023-06-10T03:27:09;15.60;99.90
9305;DHT22;4690;52.422;13.486;2023-06-10T03:29:37;15.50;99.90
9305;DHT22;4690;52.422;13.486;2023-06-10T03:32:03;15.60;99.90
9305;DHT22;4690;52.422;13.486;2023-06-10T03:34:29;15.50;99.90
9305;DHT22;4690;52.422;13.486;2023-06-10T03:36:56;15.50;99.90
9305;DHT22;4690;52.422;13.486;2023-06-10T03:39:22;15.50;99.90
9305;DHT22;4690;52.422;13.486;2023-06-10T03:41:51;15.50;99.90
9305;DHT22;4690;52.422;13.486;2023-06-10T03:44:17;15.50;99.90
9305;DHT22;4690;52.422;13.486;2023-06-10T03:46:43;15.50;99.90
9305;DHT22;4690;52.422;13.486;2023-06-10T03:49:08;15.50;99.90
9305;DHT22;4690;52.422;13.486;2023-06-10T03:51:35;15.60;99.90
9305;DHT22;4690;52.422;13.486;2023-06-10T03:54:02;15.60;99.90
9305;DHT22;4690;52.422;13.486;2023-06-10T03:56:28;15.60;99.90
9305;DHT22;4690;52.422;13.486;2023-06-10T03:58:54;15.60;99.90
9305;DHT22;4690;52.422;13.486;2023-06-10T04:01:21;15.70;99.90
9305;DHT22;4690;52.422;13.486;2023-06-10T04:03:47;15.70;99.90
9305;DHT22;4690;52.422;13.486;2023-06-10T04:06:14;15.70;99.90
9305;DHT22;4690;52.422;13.486;2023-06-10T04:08:41;15.70;99.90
9305;DHT22;4690;52.422;13.486;2023-06-10T04:11:08;15.70;99.90
9305;DHT22;4690;52.422;13.486;2023-06-10T04:13:34;15.70;99.90
9305;DHT22;4690;52.422;13.486;2023-06-10T04:16:00;15.70;99.90
9305;DHT22;4690;52.422;13.486;2023-06-10T04:18:26;15.60;99.90
9305;DHT22;4690;52.422;13.486;2023-06-10T04:20:52;15.60;99.90
9305;DHT22;4690;52.422;13.486;2023-06-10T04:23:17;15.60;99.90
9305;DHT22;4690;52.422;13.486;2023-06-10T04:25:43;15.60;99.90
9305;DHT22;4690;52.422;13.486;2023-06-10T04:28:09;15.70;99.90
9305;DHT22;4690;52.422;13.486;2023-06-10T04:30:35;15.70;99.90
9305;DHT22;4690;52.422;13.486;2023-06-10T04:33:01;15.70;99.90
9305;DHT22;4690;52.422;13.486;2023-06-10T04:35:27;15.80;99.90
9305;DHT22;4690;52.422;13.486;2023-06-10T04:37:53;15.70;99.90
9305;DHT22;4690;52.422;13.486;2023-06-10T04:40:19;15.70;99.90
9305;DHT22;4690;52.422;13.486;2023-06-10T04:42:45;15.80;99.90
9305;DHT22;4690;52.422;13.486;2023-06-10T04:45:11;16.00;99.90
9305;DHT22;4690;52.422;13.486;2023-06-10T04:47:37;16.10;99.90
9305;DHT22;4690;52.422;13.486;2023-06-10T04:50:03;16.10;99.90
9305;DHT22;4690;52.422;13.486;2023-06-10T04:52:29;16.10;99.90
9305;DHT22;4690;52.422;13.486;2023-06-10T04:54:57;16.00;99.90
9305;DHT22;4690;52.422;13.486;2023-06-10T04:57:23;16.10;99.90
9305;DHT22;4690;52.422;13.486;2023-06-10T04:59:49;16.10;99.90
9305;DHT22;4690;52.422;13.486;2023-06-10T05:02:15;16.10;99.90
9305;DHT22;4690;52.422;13.486;2023-06-10T05:04:41;16.10;99.90
9305;DHT22;4690;52.422;13.486;2023-06-10T05:07:06;16.30;99.90
9305;DHT22;4690;52.422;13.486;2023-06-10T05:09:32;16.40;99.90
9305;DHT22;4690;52.422;13.486;2023-06-10T05:11:58;16.40;99.90
9305;DHT22;4690;52.422;13.486;2023-06-10T05:14:24;16.40;99.90
9305;DHT22;4690;52.422;13.486;2023-06-10T05:16:50;16.40;99.90
9305;DHT22;4690;52.422;13.486;2023-06-10T05:19:16;16.40;99.90
9305;DHT22;4690;52.422;13.486;2023-06-10T05:21:43;16.40;99.90
9305;DHT22;4690;52.422;13.486;2023-06-10T05:24:09;16.60;99.90
9305;DHT22;4690;52.422;13.486;2023-06-10T05:26:35;16.70;99.90
9305;DHT22;4690;52.422;13.486;2023-06-10T05:29:04;16.80;99.90
9305;DHT22;4690;52.422;13.486;2023-06-10T05:31:31;16.90;99.90
9305;DHT22;4690;52.422;13.486;2023-06-10T05:33:57;17.10;99.90
9305;DHT22;4690;52.422;13.486;2023-06-10T05:36:23;17.30;99.90
9305;DHT22;4690;52.422;13.486;2023-06-10T05:38:51;17.50;99.90
9305;DHT22;4690;52.422;13.486;2023-06-10T05:41:17;17.80;99.90
9305;DHT22;4690;52.422;13.486;2023-06-10T05:43:43;18.10;99.90
9305;DHT22;4690;52.422;13.486;2023-06-10T05:46:09;18.30;99.90
9305;DHT22;4690;52.422;13.486;2023-06-10T05:48:34;18.50;99.90
9305;DHT22;4690;52.422;13.486;2023-06-10T05:51:00;18.90;99.90
9305;DHT22;4690;52.422;13.486;2023-06-10T05:53:26;19.10;99.90
9305;DHT22;4690;52.422;13.486;2023-06-10T05:55:52;19.20;99.90
9305;DHT22;4690;52.422;13.486;2023-06-10T05:58:22;19.30;99.90
9305;DHT22;4690;52.422;13.486;2023-06-10T06:00:49;19.40;99.90
9305;DHT22;4690;52.422;13.486;2023-06-10T06:03:15;19.40;99.90
9305;DHT22;4690;52.422;13.486;2023-06-10T06:05:41;19.30;99.90
9305;DHT22;4690;52.422;13.486;2023-06-10T06:08:07;19.30;99.90
9305;DHT22;4690;52.422;13.486;2023-06-10T06:10:34;19.30;99.90
9305;DHT22;4690;52.422;13.486;2023-06-10T06:13:00;19.30;99.90
9305;DHT22;4690;52.422;13.486;2023-06-10T06:15:27;19.30;99.90
9305;DHT22;4690;52.422;13.486;2023-06-10T06:17:53;19.30;99.90
9305;DHT22;4690;52.422;13.486;2023-06-10T06:20:22;19.30;99.90
9305;DHT22;4690;52.422;13.486;2023-06-10T06:22:48;19.40;99.90
9305;DHT22;4690;52.422;13.486;2023-06-10T06:25:14;19.40;99.90
9305;DHT22;4690;52.422;13.486;2023-06-10T06:27:41;19.40;99.90
9305;DHT22;4690;52.422;13.486;2023-06-10T06:30:07;19.40;99.90
9305;DHT22;4690;52.422;13.486;2023-06-10T06:32:33;19.40;99.90
9305;DHT22;4690;52.422;13.486;2023-06-10T06:34:59;19.40;99.90
9305;DHT22;4690;52.422;13.486;2023-06-10T06:37:25;19.40;99.90
9305;DHT22;4690;52.422;13.486;2023-06-10T06:39:51;19.40;99.90
9305;DHT22;4690;52.422;13.486;2023-06-10T06:42:18;19.50;99.90
9305;DHT22;4690;52.422;13.486;2023-06-10T06:44:45;19.50;99.90
9305;DHT22;4690;52.422;13.486;2023-06-10T06:47:11;19.50;99.90
9305;DHT22;4690;52.422;13.486;2023-06-10T06:49:37;19.60;99.90
9305;DHT22;4690;52.422;13.486;2023-06-10T06:52:04;19.70;99.90
9305;DHT22;4690;52.422;13.486;2023-06-10T06:54:30;19.80;99.90
9305;DHT22;4690;52.422;13.486;2023-06-10T06:56:56;19.90;99.90
9305;DHT22;4690;52.422;13.486;2023-06-10T06:59:22;20.20;99.90
9305;DHT22;4690;52.422;13.486;2023-06-10T07:01:49;20.50;99.90
9305;DHT22;4690;52.422;13.486;2023-06-10T07:04:15;20.70;99.90
9305;DHT22;4690;52.422;13.486;2023-06-10T07:06:41;21.00;99.90
9305;DHT22;4690;52.422;13.486;2023-06-10T07:09:08;21.10;99.90
9305;DHT22;4690;52.422;13.486;2023-06-10T07:11:36;21.20;99.90
9305;DHT22;4690;52.422;13.486;2023-06-10T07:14:02;21.40;99.90
9305;DHT22;4690;52.422;13.486;2023-06-10T07:16:28;21.60;99.90
9305;DHT22;4690;52.422;13.486;2023-06-10T07:18:54;21.60;99.90
9305;DHT22;4690;52.422;13.486;2023-06-10T07:21:20;21.80;99.90
9305;DHT22;4690;52.422;13.486;2023-06-10T07:23:46;22.00;99.90
9305;DHT22;4690;52.422;13.486;2023-06-10T07:26:12;21.80;99.90
9305;DHT22;4690;52.422;13.486;2023-06-10T07:28:40;21.80;99.90
9305;DHT22;4690;52.422;13.486;2023-06-10T07:31:07;21.90;99.90
9305;DHT22;4690;52.422;13.486;2023-06-10T07:33:33;21.90;99.90
9305;DHT22;4690;52.422;13.486;2023-06-10T07:35:59;22.10;99.90
9305;DHT22;4690;52.422;13.486;2023-06-10T07:38:25;22.40;99.90
9305;DHT22;4690;52.422;13.486;2023-06-10T07:40:52;22.20;99.90
9305;DHT22;4690;52.422;13.486;2023-06-10T07:43:18;22.40;99.90
9305;DHT22;4690;52.422;13.486;2023-06-10T07:45:44;22.50;99.90
9305;DHT22;4690;52.422;13.486;2023-06-10T07:48:10;22.60;99.90
9305;DHT22;4690;52.422;13.486;2023-06-10T07:50:36;22.70;99.90
9305;DHT22;4690;52.422;13.486;2023-06-10T07:53:02;23.10;99.90
9305;DHT22;4690;52.422;13.486;2023-06-10T07:55:28;23.40;99.90
9305;DHT22;4690;52.422;13.486;2023-06-10T07:57:54;23.40;99.90
9305;DHT22;4690;52.422;13.486;2023-06-10T08:00:21;23.60;99.90
9305;DHT22;4690;52.422;13.486;2023-06-10T08:02:47;23.70;99.90
9305;DHT22;4690;52.422;13.486;2023-06-10T08:05:13;23.90;99.90
9305;DHT22;4690;52.422;13.486;2023-06-10T08:07:39;24.10;99.90
9305;DHT22;4690;52.422;13.486;2023-06-10T08:10:06;24.00;99.90
9305;DHT22;4690;52.422;13.486;2023-06-10T08:12:34;24.20;99.90
9305;DHT22;4690;52.422;13.486;2023-06-10T08:15:00;24.10;99.90
9305;DHT22;4690;52.422;13.486;2023-06-10T08:17:28;23.90;99.90
9305;DHT22;4690;52.422;13.486;2023-06-10T08:19:54;23.90;99.90
9305;DHT22;4690;52.422;13.486;2023-06-10T08:22:20;23.60;99.90
9305;DHT22;4690;52.422;13.486;2023-06-10T08:24:45;23.60;99.90
9305;DHT22;4690;52.422;13.486;2023-06-10T08:27:11;23.60;99.90
9305;DHT22;4690;52.422;13.486;2023-06-10T08:29:37;24.00;99.90
9305;DHT22;4690;52.422;13.486;2023-06-10T08:32:03;24.40;99.90
9305;DHT22;4690;52.422;13.486;2023-06-10T08:34:29;24.40;99.90
9305;DHT22;4690;52.422;13.486;2023-06-10T08:36:55;24.50;99.90
9305;DHT22;4690;52.422;13.486;2023-06-10T08:39:21;24.40;99.90
9305;DHT22;4690;52.422;13.486;2023-06-10T08:45:01;24.50;99.90
9305;DHT22;4690;52.422;13.486;2023-06-10T08:47:29;24.70;99.90
9305;DHT22;4690;52.422;13.486;2023-06-10T08:50:03;24.90;99.90
9305;DHT22;4690;52.422;13.486;2023-06-10T08:52:37;25.30;99.90
9305;DHT22;4690;52.422;13.486;2023-06-10T08:55:18;25.40;99.90
9305;DHT22;4690;52.422;13.486;2023-06-10T08:57:48;25.20;99.90
9305;DHT22;4690;52.422;13.486;2023-06-10T09:00:16;25.20;99.90
9305;DHT22;4690;52.422;13.486;2023-06-10T09:02:43;25.40;99.90
9305;DHT22;4690;52.422;13.486;2023-06-10T09:05:09;25.40;99.90
9305;DHT22;4690;52.422;13.486;2023-06-10T09:07:36;25.70;99.90
9305;DHT22;4690;52.422;13.486;2023-06-10T09:10:03;25.90;99.90
9305;DHT22;4690;52.422;13.486;2023-06-10T09:12:35;26.20;99.90
9305;DHT22;4690;52.422;13.486;2023-06-10T09:15:02;26.10;99.90
9305;DHT22;4690;52.422;13.486;2023-06-10T09:17:28;26.10;99.90
9305;DHT22;4690;52.422;13.486;2023-06-10T09:19:54;26.20;99.90
9305;DHT22;4690;52.422;13.486;2023-06-10T09:22:24;26.30;99.90
9305;DHT22;4690;52.422;13.486;2023-06-10T09:25:01;26.40;99.90
9305;DHT22;4690;52.422;13.486;2023-06-10T09:27:30;26.40;99.90
9305;DHT22;4690;52.422;13.486;2023-06-10T09:29:56;26.50;99.90
9305;DHT22;4690;52.422;13.486;2023-06-10T09:32:23;26.40;99.90
9305;DHT22;4690;52.422;13.486;2023-06-10T09:34:50;26.30;99.90
9305;DHT22;4690;52.422;13.486;2023-06-10T09:37:23;26.40;99.90
9305;DHT22;4690;52.422;13.486;2023-06-10T09:40:06;26.60;99.90
9305;DHT22;4690;52.422;13.486;2023-06-10T09:42:34;26.70;99.90
9305;DHT22;4690;52.422;13.486;2023-06-10T09:45:05;26.50;99.50
9305;DHT22;4690;52.422;13.486;2023-06-10T09:47:32;26.40;99.70
9305;DHT22;4690;52.422;13.486;2023-06-10T09:49:57;26.30;99.10
9305;DHT22;4690;52.422;13.486;2023-06-10T09:52:24;26.30;99.10
9305;DHT22;4690;52.422;13.486;2023-06-10T09:54:52;26.30;99.60
9305;DHT22;4690;52.422;13.486;2023-06-10T09:57:31;26.40;98.70
9305;DHT22;4690;52.422;13.486;2023-06-10T09:59:59;26.30;99.10
9305;DHT22;4690;52.422;13.486;2023-06-10T10:02:29;26.30;99.60
9305;DHT22;4690;52.422;13.486;2023-06-10T10:05:02;26.60;98.40
9305;DHT22;4690;52.422;13.486;2023-06-10T10:07:29;26.60;97.70
9305;DHT22;4690;52.422;13.486;2023-06-10T10:09:56;26.60;99.90
9305;DHT22;4690;52.422;13.486;2023-06-10T10:12:22;26.80;99.70
9305;DHT22;4690;52.422;13.486;2023-06-10T10:14:50;26.80;99.10
9305;DHT22;4690;52.422;13.486;2023-06-10T10:17:16;27.10;99.90
9305;DHT22;4690;52.422;13.486;2023-06-10T10:19:52;27.30;99.90
9305;DHT22;4690;52.422;13.486;2023-06-10T10:22:27;27.60;99.90
9305;DHT22;4690;52.422;13.486;2023-06-10T10:24:59;27.80;97.70
9305;DHT22;4690;52.422;13.486;2023-06-10T10:27:33;27.10;97.80
9305;DHT22;4690;52.422;13.486;2023-06-10T10:30:06;26.90;98.80
9305;DHT22;4690;52.422;13.486;2023-06-10T10:32:40;26.70;97.30
9305;DHT22;4690;52.422;13.486;2023-06-10T10:35:21;26.50;97.10
9305;DHT22;4690;52.422;13.486;2023-06-10T10:37:52;26.70;98.00
9305;DHT22;4690;52.422;13.486;2023-06-10T10:40:21;27.10;97.00
9305;DHT22;4690;52.422;13.486;2023-06-10T10:42:49;27.20;96.20
9305;DHT22;4690;52.422;13.486;2023-06-10T10:45:15;27.40;98.10
9305;DHT22;4690;52.422;13.486;2023-06-10T10:47:43;27.70;97.60
9305;DHT22;4690;52.422;13.486;2023-06-10T10:50:18;27.80;94.30
9305;DHT22;4690;52.422;13.486;2023-06-10T10:53:04;27.70;96.50
9305;DHT22;4690;52.422;13.486;2023-06-10T10:55:31;27.80;95.60
9305;DHT22;4690;52.422;13.486;2023-06-10T10:58:07;28.00;95.20
9305;DHT22;4690;52.422;13.486;2023-06-10T11:00:37;28.30;96.20
9305;DHT22;4690;52.422;13.486;2023-06-10T11:03:09;28.10;95.50
9305;DHT22;4690;52.422;13.486;2023-06-10T11:05:42;28.20;95.70
9305;DHT22;4690;52.422;13.486;2023-06-10T11:11:24;28.60;96.20
9305;DHT22;4690;52.422;13.486;2023-06-10T11:16:28;28.40;93.20
9305;DHT22;4690;52.422;13.486;2023-06-10T11:18:55;28.40;92.70
9305;DHT22;4690;52.422;13.486;2023-06-10T11:21:23;28.30;94.70
9305;DHT22;4690;52.422;13.486;2023-06-10T11:23:51;28.50;94.00
9305;DHT22;4690;52.422;13.486;2023-06-10T11:34:02;28.50;92.00
9305;DHT22;4690;52.422;13.486;2023-06-10T11:36:30;28.70;94.10
9305;DHT22;4690;52.422;13.486;2023-06-10T11:39:00;28.80;93.10
9305;DHT22;4690;52.422;13.486;2023-06-10T11:41:29;28.70;92.30
9305;DHT22;4690;52.422;13.486;2023-06-10T11:44:01;28.70;92.20
9305;DHT22;4690;52.422;13.486;2023-06-10T11:46:28;28.70;92.00
9305;DHT22;4690;52.422;13.486;2023-06-10T11:48:59;28.60;91.70
9305;DHT22;4690;52.422;13.486;2023-06-10T11:51:27;28.30;91.20
9305;DHT22;4690;52.422;13.486;2023-06-10T11:53:57;28.30;92.40
9305;DHT22;4690;52.422;13.486;2023-06-10T11:56:25;28.40;91.30
9305;DHT22;4690;52.422;13.486;2023-06-10T11:58:56;28.10;91.70
9305;DHT22;4690;52.422;13.486;2023-06-10T12:01:37;27.80;91.50
9305;DHT22;4690;52.422;13.486;2023-06-10T12:04:15;27.90;91.60
9305;DHT22;4690;52.422;13.486;2023-06-10T12:11:43;28.20;91.40
9305;DHT22;4690;52.422;13.486;2023-06-10T12:14:10;28.20;91.30
9305;DHT22;4690;52.422;13.486;2023-06-10T12:16:36;28.10;91.10
9305;DHT22;4690;52.422;13.486;2023-06-10T12:19:04;28.00;92.00
9305;DHT22;4690;52.422;13.486;2023-06-10T12:21:33;28.00;93.40
9305;DHT22;4690;52.422;13.486;2023-06-10T12:24:06;28.40;92.00
9305;DHT22;4690;52.422;13.486;2023-06-10T12:26:40;28.40;92.30
9305;DHT22;4690;52.422;13.486;2023-06-10T12:29:23;28.40;93.20
9305;DHT22;4690;52.422;13.486;2023-06-10T12:32:03;28.40;93.50
9305;DHT22;4690;52.422;13.486;2023-06-10T12:34:40;28.60;94.40
9305;DHT22;4690;52.422;13.486;2023-06-10T12:37:10;28.80;95.50
9305;DHT22;4690;52.422;13.486;2023-06-10T12:39:41;28.90;92.80
9305;DHT22;4690;52.422;13.486;2023-06-10T12:42:12;28.90;93.70
9305;DHT22;4690;52.422;13.486;2023-06-10T12:44:41;28.70;92.90
9305;DHT22;4690;52.422;13.486;2023-06-10T12:47:08;28.70;92.80
9305;DHT22;4690;52.422;13.486;2023-06-10T12:49:36;28.60;93.10
9305;DHT22;4690;52.422;13.486;2023-06-10T12:52:03;28.90;92.60
9305;DHT22;4690;52.422;13.486;2023-06-10T12:54:29;29.00;92.00
9305;DHT22;4690;52.422;13.486;2023-06-10T12:56:55;28.90;91.00
9305;DHT22;4690;52.422;13.486;2023-06-10T12:59:21;28.50;91.30
9305;DHT22;4690;52.422;13.486;2023-06-10T13:01:54;28.30;91.70
9305;DHT22;4690;52.422;13.486;2023-06-10T13:04:20;28.50;91.00
9305;DHT22;4690;52.422;13.486;2023-06-10T13:06:47;28.70;91.80
9305;DHT22;4690;52.422;13.486;2023-06-10T13:09:14;28.60;92.20
9305;DHT22;4690;52.422;13.486;2023-06-10T13:11:41;28.50;92.50
9305;DHT22;4690;52.422;13.486;2023-06-10T13:14:08;28.40;91.30
9305;DHT22;4690;52.422;13.486;2023-06-10T13:16:35;28.20;90.60
9305;DHT22;4690;52.422;13.486;2023-06-10T13:19:03;28.10;91.10
9305;DHT22;4690;52.422;13.486;2023-06-10T13:21:31;28.20;91.70
9305;DHT22;4690;52.422;13.486;2023-06-10T13:23:59;28.50;92.40
9305;DHT22;4690;52.422;13.486;2023-06-10T13:26:25;28.60;92.80
9305;DHT22;4690;52.422;13.486;2023-06-10T13:28:50;28.70;91.30
9305;DHT22;4690;52.422;13.486;2023-06-10T13:31:16;29.00;92.80
9305;DHT22;4690;52.422;13.486;2023-06-10T13:33:42;29.10;91.40
9305;DHT22;4690;52.422;13.486;2023-06-10T13:36:09;29.20;84.30
9305;DHT22;4690;52.422;13.486;2023-06-10T13:38:35;29.00;84.00
9305;DHT22;4690;52.422;13.486;2023-06-10T13:41:01;28.90;87.40
9305;DHT22;4690;52.422;13.486;2023-06-10T13:43:27;29.10;87.60
9305;DHT22;4690;52.422;13.486;2023-06-10T13:45:54;29.10;87.80
9305;DHT22;4690;52.422;13.486;2023-06-10T13:48:20;29.00;88.90
9305;DHT22;4690;52.422;13.486;2023-06-10T13:50:45;29.00;90.30
9305;DHT22;4690;52.422;13.486;2023-06-10T13:53:12;28.80;89.90
9305;DHT22;4690;52.422;13.486;2023-06-10T13:55:38;28.40;89.40
9305;DHT22;4690;52.422;13.486;2023-06-10T13:58:03;28.50;91.90
9305;DHT22;4690;52.422;13.486;2023-06-10T14:00:30;28.60;90.40
9305;DHT22;4690;52.422;13.486;2023-06-10T14:02:56;28.80;89.10
9305;DHT22;4690;52.422;13.486;2023-06-10T14:05:22;29.00;87.20
9305;DHT22;4690;52.422;13.486;2023-06-10T14:07:48;28.70;85.30
9305;DHT22;4690;52.422;13.486;2023-06-10T14:10:14;28.50;87.00
9305;DHT22;4690;52.422;13.486;2023-06-10T14:12:40;28.70;85.20
9305;DHT22;4690;52.422;13.486;2023-06-10T14:15:06;28.90;88.80
9305;DHT22;4690;52.422;13.486;2023-06-10T14:17:32;29.00;85.70
9305;DHT22;4690;52.422;13.486;2023-06-10T14:19:58;28.90;85.50
9305;DHT22;4690;52.422;13.486;2023-06-10T14:22:24;29.00;86.70
9305;DHT22;4690;52.422;13.486;2023-06-10T14:24:49;28.80;89.40
9305;DHT22;4690;52.422;13.486;2023-06-10T14:27:15;28.50;90.60
9305;DHT22;4690;52.422;13.486;2023-06-10T14:29:41;28.30;89.80
9305;DHT22;4690;52.422;13.486;2023-06-10T14:32:07;28.00;89.60
9305;DHT22;4690;52.422;13.486;2023-06-10T14:34:32;27.80;90.00
9305;DHT22;4690;52.422;13.486;2023-06-10T14:37:00;27.80;90.30
9305;DHT22;4690;52.422;13.486;2023-06-10T14:39:26;27.50;90.40
9305;DHT22;4690;52.422;13.486;2023-06-10T14:41:51;27.50;91.00
9305;DHT22;4690;52.422;13.486;2023-06-10T14:44:20;27.80;90.80
9305;DHT22;4690;52.422;13.486;2023-06-10T14:46:46;27.90;90.30
9305;DHT22;4690;52.422;13.486;2023-06-10T14:49:11;28.10;90.70
9305;DHT22;4690;52.422;13.486;2023-06-10T14:51:37;28.30;90.10
9305;DHT22;4690;52.422;13.486;2023-06-10T14:54:03;28.30;89.70
9305;DHT22;4690;52.422;13.486;2023-06-10T14:56:29;28.30;89.20
9305;DHT22;4690;52.422;13.486;2023-06-10T14:58:55;28.30;89.00
9305;DHT22;4690;52.422;13.486;2023-06-10T15:01:20;28.20;88.70
9305;DHT22;4690;52.422;13.486;2023-06-10T15:03:46;28.30;90.20
9305;DHT22;4690;52.422;13.486;2023-06-10T15:06:12;28.30;89.80
9305;DHT22;4690;52.422;13.486;2023-06-10T15:08:38;28.30;88.40
9305;DHT22;4690;52.422;13.486;2023-06-10T15:11:03;28.20;88.20
9305;DHT22;4690;52.422;13.486;2023-06-10T15:13:29;28.40;88.20
9305;DHT22;4690;52.422;13.486;2023-06-10T15:15:55;28.30;84.30
9305;DHT22;4690;52.422;13.486;2023-06-10T15:18:21;28.30;84.00
9305;DHT22;4690;52.422;13.486;2023-06-10T15:20:46;28.30;84.10
9305;DHT22;4690;52.422;13.486;2023-06-10T15:23:12;28.30;84.30
9305;DHT22;4690;52.422;13.486;2023-06-10T15:25:38;28.30;86.30
9305;DHT22;4690;52.422;13.486;2023-06-10T15:28:06;28.30;83.20
9305;DHT22;4690;52.422;13.486;2023-06-10T15:30:32;28.20;82.60
9305;DHT22;4690;52.422;13.486;2023-06-10T15:32:57;28.20;82.50
9305;DHT22;4690;52.422;13.486;2023-06-10T15:35:23;28.20;81.50
9305;DHT22;4690;52.422;13.486;2023-06-10T15:37:49;28.20;81.80
9305;DHT22;4690;52.422;13.486;2023-06-10T15:40:15;28.10;80.50
9305;DHT22;4690;52.422;13.486;2023-06-10T15:42:41;28.00;81.60
9305;DHT22;4690;52.422;13.486;2023-06-10T15:45:06;28.00;81.10
9305;DHT22;4690;52.422;13.486;2023-06-10T15:47:32;28.10;81.20
9305;DHT22;4690;52.422;13.486;2023-06-10T15:49:58;28.10;79.90
9305;DHT22;4690;52.422;13.486;2023-06-10T15:52:24;28.00;80.10
9305;DHT22;4690;52.422;13.486;2023-06-10T15:54:49;28.00;78.90
9305;DHT22;4690;52.422;13.486;2023-06-10T15:57:15;28.00;78.90
9305;DHT22;4690;52.422;13.486;2023-06-10T15:59:41;28.00;79.60
9305;DHT22;4690;52.422;13.486;2023-06-10T16:02:07;27.90;78.10
9305;DHT22;4690;52.422;13.486;2023-06-10T16:04:33;27.90;79.80
9305;DHT22;4690;52.422;13.486;2023-06-10T16:06:59;27.90;78.00
9305;DHT22;4690;52.422;13.486;2023-06-10T16:09:24;27.90;76.60
9305;DHT22;4690;52.422;13.486;2023-06-10T16:11:50;27.90;76.80